sensor_id;sensor_type;location;lat;lon;timestamp;P1;durP1;ratioP1;P2;durP2;ratioP2
52668;SDS011;59898;52.786;6.892;2022-07-09T00:02:36;12.63;;;7.10;;
52668;SDS011;59898;52.786;6.892;2022-07-09T00:05:57;13.23;;;8.52;;
52668;SDS011;59898;52.786;6.892;2022-07-09T00:09:17;13.10;;;8.18;;
52668;SDS011;59898;52.786;6.892;2022-07-09T00:12:38;16.77;;;8.75;;
52668;SDS011;59898;52.786;6.892;2022-07-09T00:15:59;11.07;;;7.90;;
52668;SDS011;59898;52.786;6.892;2022-07-09T00:19:20;13.88;;;6.88;;
52668;SDS011;59898;52.786;6.892;2022-07-09T00:22:40;8.93;;;6.55;;
52668;SDS011;59898;52.786;6.892;2022-07-09T00:26:01;12.75;;;6.70;;
52668;SDS011;59898;52.786;6.892;2022-07-09T00:29:22;9.80;;;7.38;;
52668;SDS011;59898;52.786;6.892;2022-07-09T00:32:43;12.68;;;6.60;;
52668;SDS011;59898;52.786;6.892;2022-07-09T00:36:03;9.48;;;7.55;;
52668;SDS011;59898;52.786;6.892;2022-07-09T00:39:24;11.90;;;7.15;;
52668;SDS011;59898;52.786;6.892;2022-07-09T00:42:45;11.05;;;6.25;;
52668;SDS011;59898;52.786;6.892;2022-07-09T00:46:06;15.27;;;7.55;;
52668;SDS011;59898;52.786;6.892;2022-07-09T00:49:28;14.32;;;8.30;;
52668;SDS011;59898;52.786;6.892;2022-07-09T00:56:10;13.63;;;7.72;;
52668;SDS011;59898;52.786;6.892;2022-07-09T00:59:32;16.55;;;8.55;;
52668;SDS011;59898;52.786;6.892;2022-07-09T01:02:54;17.05;;;8.73;;
52668;SDS011;59898;52.786;6.892;2022-07-09T01:06:15;14.85;;;7.60;;
52668;SDS011;59898;52.786;6.892;2022-07-09T01:09:36;17.75;;;8.75;;
52668;SDS011;59898;52.786;6.892;2022-07-09T01:12:58;13.60;;;7.93;;
52668;SDS011;59898;52.786;6.892;2022-07-09T01:16:19;13.38;;;8.02;;
52668;SDS011;59898;52.786;6.892;2022-07-09T01:19:40;10.68;;;7.28;;
52668;SDS011;59898;52.786;6.892;2022-07-09T01:23:01;11.35;;;7.78;;
52668;SDS011;59898;52.786;6.892;2022-07-09T01:26:25;13.43;;;6.47;;
52668;SDS011;59898;52.786;6.892;2022-07-09T01:29:46;14.45;;;7.82;;
52668;SDS011;59898;52.786;6.892;2022-07-09T01:33:09;9.65;;;6.43;;
52668;SDS011;59898;52.786;6.892;2022-07-09T01:36:30;12.57;;;7.50;;
52668;SDS011;59898;52.786;6.892;2022-07-09T01:39:50;14.38;;;7.65;;
52668;SDS011;59898;52.786;6.892;2022-07-09T01:43:11;17.15;;;7.97;;
52668;SDS011;59898;52.786;6.892;2022-07-09T01:46:33;10.50;;;6.93;;
52668;SDS011;59898;52.786;6.892;2022-07-09T01:49:54;12.98;;;7.78;;
52668;SDS011;59898;52.786;6.892;2022-07-09T01:53:15;11.05;;;7.78;;
52668;SDS011;59898;52.786;6.892;2022-07-09T01:56:35;14.27;;;8.05;;
52668;SDS011;59898;52.786;6.892;2022-07-09T01:59:56;10.85;;;7.15;;
52668;SDS011;59898;52.786;6.892;2022-07-09T02:03:17;14.05;;;7.65;;
52668;SDS011;59898;52.786;6.892;2022-07-09T02:06:37;11.13;;;7.80;;
52668;SDS011;59898;52.786;6.892;2022-07-09T02:09:58;11.48;;;8.15;;
52668;SDS011;59898;52.786;6.892;2022-07-09T02:13:19;13.90;;;7.93;;
52668;SDS011;59898;52.786;6.892;2022-07-09T02:16:40;14.95;;;8.35;;
52668;SDS011;59898;52.786;6.892;2022-07-09T02:20:01;17.00;;;8.82;;
52668;SDS011;59898;52.786;6.892;2022-07-09T02:23:23;13.85;;;8.02;;
52668;SDS011;59898;52.786;6.892;2022-07-09T02:26:44;13.30;;;8.82;;
52668;SDS011;59898;52.786;6.892;2022-07-09T02:30:04;13.40;;;9.40;;
52668;SDS011;59898;52.786;6.892;2022-07-09T02:33:25;15.95;;;8.88;;
52668;SDS011;59898;52.786;6.892;2022-07-09T02:36:46;15.07;;;9.15;;
52668;SDS011;59898;52.786;6.892;2022-07-09T02:40:07;16.13;;;9.70;;
52668;SDS011;59898;52.786;6.892;2022-07-09T02:43:28;17.70;;;9.23;;
52668;SDS011;59898;52.786;6.892;2022-07-09T02:46:49;16.85;;;11.25;;
52668;SDS011;59898;52.786;6.892;2022-07-09T02:50:09;16.17;;;11.18;;
52668;SDS011;59898;52.786;6.892;2022-07-09T02:53:30;17.65;;;10.82;;
52668;SDS011;59898;52.786;6.892;2022-07-09T02:56:51;22.90;;;11.77;;
52668;SDS011;59898;52.786;6.892;2022-07-09T03:00:12;18.45;;;11.73;;
52668;SDS011;59898;52.786;6.892;2022-07-09T03:03:33;19.52;;;12.48;;
52668;SDS011;59898;52.786;6.892;2022-07-09T03:06:57;18.92;;;11.25;;
52668;SDS011;59898;52.786;6.892;2022-07-09T03:10:17;18.60;;;12.27;;
52668;SDS011;59898;52.786;6.892;2022-07-09T03:13:38;16.70;;;10.02;;
52668;SDS011;59898;52.786;6.892;2022-07-09T03:16:59;18.52;;;11.90;;
52668;SDS011;59898;52.786;6.892;2022-07-09T03:20:19;15.27;;;10.43;;
52668;SDS011;59898;52.786;6.892;2022-07-09T03:23:40;16.27;;;10.35;;
52668;SDS011;59898;52.786;6.892;2022-07-09T03:27:01;13.00;;;10.13;;
52668;SDS011;59898;52.786;6.892;2022-07-09T03:30:22;17.85;;;10.85;;
52668;SDS011;59898;52.786;6.892;2022-07-09T03:33:43;13.93;;;10.18;;
52668;SDS011;59898;52.786;6.892;2022-07-09T03:37:04;17.75;;;9.55;;
52668;SDS011;59898;52.786;6.892;2022-07-09T03:40:25;14.30;;;9.52;;
52668;SDS011;59898;52.786;6.892;2022-07-09T03:43:46;15.23;;;10.00;;
52668;SDS011;59898;52.786;6.892;2022-07-09T03:47:07;15.95;;;9.80;;
52668;SDS011;59898;52.786;6.892;2022-07-09T03:50:28;11.68;;;9.00;;
52668;SDS011;59898;52.786;6.892;2022-07-09T03:53:48;12.40;;;8.75;;
52668;SDS011;59898;52.786;6.892;2022-07-09T03:57:09;16.25;;;9.57;;
52668;SDS011;59898;52.786;6.892;2022-07-09T04:00:30;18.23;;;9.48;;
52668;SDS011;59898;52.786;6.892;2022-07-09T04:03:51;16.27;;;9.48;;
52668;SDS011;59898;52.786;6.892;2022-07-09T04:07:11;12.00;;;8.43;;
52668;SDS011;59898;52.786;6.892;2022-07-09T04:10:32;15.40;;;8.68;;
52668;SDS011;59898;52.786;6.892;2022-07-09T04:13:53;15.75;;;9.77;;
52668;SDS011;59898;52.786;6.892;2022-07-09T04:17:13;12.73;;;8.45;;
52668;SDS011;59898;52.786;6.892;2022-07-09T04:20:34;13.82;;;9.30;;
52668;SDS011;59898;52.786;6.892;2022-07-09T04:23:55;15.95;;;8.40;;
52668;SDS011;59898;52.786;6.892;2022-07-09T04:27:15;15.38;;;9.13;;
52668;SDS011;59898;52.786;6.892;2022-07-09T04:30:36;16.45;;;10.70;;
52668;SDS011;59898;52.786;6.892;2022-07-09T04:33:57;15.32;;;8.75;;
52668;SDS011;59898;52.786;6.892;2022-07-09T04:37:17;13.43;;;9.52;;
52668;SDS011;59898;52.786;6.892;2022-07-09T04:40:39;19.02;;;9.27;;
52668;SDS011;59898;52.786;6.892;2022-07-09T04:44:00;15.75;;;8.80;;
52668;SDS011;59898;52.786;6.892;2022-07-09T04:47:20;18.17;;;9.35;;
52668;SDS011;59898;52.786;6.892;2022-07-09T04:50:41;16.17;;;9.30;;
52668;SDS011;59898;52.786;6.892;2022-07-09T04:54:02;17.17;;;8.77;;
52668;SDS011;59898;52.786;6.892;2022-07-09T04:57:22;14.10;;;8.48;;
52668;SDS011;59898;52.786;6.892;2022-07-09T05:00:43;13.55;;;9.55;;
52668;SDS011;59898;52.786;6.892;2022-07-09T05:04:04;18.20;;;9.80;;
52668;SDS011;59898;52.786;6.892;2022-07-09T05:07:24;14.73;;;8.60;;
52668;SDS011;59898;52.786;6.892;2022-07-09T05:10:45;15.90;;;9.27;;
52668;SDS011;59898;52.786;6.892;2022-07-09T05:14:06;13.98;;;10.32;;
52668;SDS011;59898;52.786;6.892;2022-07-09T05:17:26;14.70;;;8.40;;
52668;SDS011;59898;52.786;6.892;2022-07-09T05:20:47;16.60;;;9.65;;
52668;SDS011;59898;52.786;6.892;2022-07-09T05:24:08;14.65;;;8.48;;
52668;SDS011;59898;52.786;6.892;2022-07-09T05:27:29;13.32;;;8.80;;
52668;SDS011;59898;52.786;6.892;2022-07-09T05:30:50;14.63;;;9.18;;
52668;SDS011;59898;52.786;6.892;2022-07-09T05:34:11;14.02;;;10.23;;
52668;SDS011;59898;52.786;6.892;2022-07-09T05:37:33;12.10;;;9.10;;
52668;SDS011;59898;52.786;6.892;2022-07-09T05:41:00;11.40;;;7.93;;
52668;SDS011;59898;52.786;6.892;2022-07-09T05:44:20;13.80;;;8.75;;
52668;SDS011;59898;52.786;6.892;2022-07-09T05:47:41;11.90;;;7.82;;
52668;SDS011;59898;52.786;6.892;2022-07-09T05:51:02;16.65;;;9.07;;
52668;SDS011;59898;52.786;6.892;2022-07-09T05:54:23;10.82;;;7.30;;
52668;SDS011;59898;52.786;6.892;2022-07-09T05:57:43;15.45;;;9.48;;
52668;SDS011;59898;52.786;6.892;2022-07-09T06:01:04;16.80;;;7.93;;
52668;SDS011;59898;52.786;6.892;2022-07-09T06:04:25;17.23;;;9.43;;
52668;SDS011;59898;52.786;6.892;2022-07-09T06:07:46;12.65;;;7.97;;
52668;SDS011;59898;52.786;6.892;2022-07-09T06:11:07;9.10;;;7.60;;
52668;SDS011;59898;52.786;6.892;2022-07-09T06:14:28;12.35;;;7.35;;
52668;SDS011;59898;52.786;6.892;2022-07-09T06:17:48;8.07;;;6.55;;
52668;SDS011;59898;52.786;6.892;2022-07-09T06:21:10;7.30;;;6.22;;
52668;SDS011;59898;52.786;6.892;2022-07-09T06:24:31;10.23;;;6.65;;
52668;SDS011;59898;52.786;6.892;2022-07-09T06:27:51;10.52;;;7.38;;
52668;SDS011;59898;52.786;6.892;2022-07-09T06:31:12;7.10;;;5.53;;
52668;SDS011;59898;52.786;6.892;2022-07-09T06:34:33;10.50;;;5.80;;
52668;SDS011;59898;52.786;6.892;2022-07-09T06:37:53;9.85;;;5.55;;
52668;SDS011;59898;52.786;6.892;2022-07-09T06:41:14;8.65;;;5.68;;
52668;SDS011;59898;52.786;6.892;2022-07-09T06:44:35;9.23;;;4.90;;
52668;SDS011;59898;52.786;6.892;2022-07-09T06:47:56;7.90;;;4.78;;
52668;SDS011;59898;52.786;6.892;2022-07-09T06:51:16;7.93;;;5.15;;
52668;SDS011;59898;52.786;6.892;2022-07-09T06:54:37;7.38;;;4.50;;
52668;SDS011;59898;52.786;6.892;2022-07-09T06:57:58;8.18;;;5.15;;
52668;SDS011;59898;52.786;6.892;2022-07-09T07:01:20;8.93;;;4.83;;
52668;SDS011;59898;52.786;6.892;2022-07-09T07:04:40;7.13;;;4.63;;
52668;SDS011;59898;52.786;6.892;2022-07-09T07:08:01;10.40;;;5.72;;
52668;SDS011;59898;52.786;6.892;2022-07-09T07:11:22;7.40;;;4.60;;
52668;SDS011;59898;52.786;6.892;2022-07-09T07:14:43;8.10;;;4.53;;
52668;SDS011;59898;52.786;6.892;2022-07-09T07:18:03;7.93;;;4.75;;
52668;SDS011;59898;52.786;6.892;2022-07-09T07:21:24;6.72;;;4.80;;
52668;SDS011;59898;52.786;6.892;2022-07-09T07:24:45;6.78;;;5.07;;
52668;SDS011;59898;52.786;6.892;2022-07-09T07:28:05;6.00;;;4.55;;
52668;SDS011;59898;52.786;6.892;2022-07-09T07:31:26;8.25;;;4.38;;
52668;SDS011;59898;52.786;6.892;2022-07-09T07:34:47;8.30;;;4.53;;
52668;SDS011;59898;52.786;6.892;2022-07-09T07:38:07;8.82;;;4.22;;
52668;SDS011;59898;52.786;6.892;2022-07-09T07:41:28;7.88;;;4.60;;
52668;SDS011;59898;52.786;6.892;2022-07-09T07:44:49;8.32;;;4.35;;
52668;SDS011;59898;52.786;6.892;2022-07-09T07:48:09;5.20;;;4.15;;
52668;SDS011;59898;52.786;6.892;2022-07-09T07:51:30;8.82;;;4.20;;
52668;SDS011;59898;52.786;6.892;2022-07-09T07:54:51;4.78;;;4.07;;
52668;SDS011;59898;52.786;6.892;2022-07-09T07:58:11;6.38;;;4.70;;
52668;SDS011;59898;52.786;6.892;2022-07-09T08:01:32;6.95;;;4.78;;
52668;SDS011;59898;52.786;6.892;2022-07-09T08:04:53;10.05;;;4.30;;
52668;SDS011;59898;52.786;6.892;2022-07-09T08:08:13;7.75;;;4.40;;
52668;SDS011;59898;52.786;6.892;2022-07-09T08:11:34;15.40;;;4.88;;
52668;SDS011;59898;52.786;6.892;2022-07-09T08:14:55;6.70;;;4.65;;
52668;SDS011;59898;52.786;6.892;2022-07-09T08:18:16;7.70;;;4.70;;
52668;SDS011;59898;52.786;6.892;2022-07-09T08:21:36;5.78;;;4.15;;
52668;SDS011;59898;52.786;6.892;2022-07-09T08:24:57;10.30;;;7.30;;
52668;SDS011;59898;52.786;6.892;2022-07-09T08:28:18;5.50;;;3.65;;
52668;SDS011;59898;52.786;6.892;2022-07-09T08:31:38;10.13;;;4.03;;
52668;SDS011;59898;52.786;6.892;2022-07-09T08:34:59;12.02;;;4.40;;
52668;SDS011;59898;52.786;6.892;2022-07-09T08:38:20;7.05;;;3.20;;
52668;SDS011;59898;52.786;6.892;2022-07-09T08:41:40;5.75;;;3.67;;
52668;SDS011;59898;52.786;6.892;2022-07-09T08:45:02;6.40;;;4.00;;
52668;SDS011;59898;52.786;6.892;2022-07-09T08:48:27;8.43;;;4.63;;
52668;SDS011;59898;52.786;6.892;2022-07-09T08:51:48;5.05;;;3.25;;
52668;SDS011;59898;52.786;6.892;2022-07-09T08:55:12;6.75;;;3.30;;
52668;SDS011;59898;52.786;6.892;2022-07-09T08:58:33;5.57;;;3.10;;
52668;SDS011;59898;52.786;6.892;2022-07-09T09:01:54;4.95;;;3.33;;
52668;SDS011;59898;52.786;6.892;2022-07-09T09:05:15;5.07;;;2.83;;
52668;SDS011;59898;52.786;6.892;2022-07-09T09:08:43;5.85;;;3.40;;
52668;SDS011;59898;52.786;6.892;2022-07-09T09:12:05;9.02;;;4.97;;
52668;SDS011;59898;52.786;6.892;2022-07-09T09:15:26;4.90;;;2.78;;
52668;SDS011;59898;52.786;6.892;2022-07-09T09:18:48;5.15;;;2.92;;
52668;SDS011;59898;52.786;6.892;2022-07-09T09:22:13;4.05;;;2.75;;
52668;SDS011;59898;52.786;6.892;2022-07-09T09:25:35;3.30;;;2.45;;
52668;SDS011;59898;52.786;6.892;2022-07-09T09:28:57;5.20;;;2.55;;
52668;SDS011;59898;52.786;6.892;2022-07-09T09:32:20;4.75;;;3.95;;
52668;SDS011;59898;52.786;6.892;2022-07-09T09:35:44;4.25;;;2.45;;
52668;SDS011;59898;52.786;6.892;2022-07-09T09:39:18;3.03;;;2.22;;
52668;SDS011;59898;52.786;6.892;2022-07-09T09:42:46;4.85;;;3.08;;
52668;SDS011;59898;52.786;6.892;2022-07-09T09:49:30;3.78;;;2.42;;
52668;SDS011;59898;52.786;6.892;2022-07-09T09:52:52;3.70;;;2.20;;
52668;SDS011;59898;52.786;6.892;2022-07-09T09:56:14;5.30;;;2.80;;
52668;SDS011;59898;52.786;6.892;2022-07-09T09:59:36;3.33;;;2.20;;
52668;SDS011;59898;52.786;6.892;2022-07-09T10:02:57;4.45;;;2.83;;
52668;SDS011;59898;52.786;6.892;2022-07-09T10:06:21;3.70;;;2.80;;
52668;SDS011;59898;52.786;6.892;2022-07-09T10:09:55;4.75;;;2.58;;
52668;SDS011;59898;52.786;6.892;2022-07-09T10:13:22;3.65;;;2.50;;
52668;SDS011;59898;52.786;6.892;2022-07-09T10:16:43;14.75;;;2.88;;
52668;SDS011;59898;52.786;6.892;2022-07-09T10:20:05;5.25;;;3.83;;
52668;SDS011;59898;52.786;6.892;2022-07-09T10:23:26;3.35;;;2.30;;
52668;SDS011;59898;52.786;6.892;2022-07-09T10:26:47;2.95;;;2.20;;
52668;SDS011;59898;52.786;6.892;2022-07-09T10:30:08;5.18;;;2.30;;
52668;SDS011;59898;52.786;6.892;2022-07-09T10:33:42;4.40;;;1.95;;
52668;SDS011;59898;52.786;6.892;2022-07-09T10:37:14;5.75;;;2.00;;
52668;SDS011;59898;52.786;6.892;2022-07-09T10:40:41;7.63;;;2.63;;
52668;SDS011;59898;52.786;6.892;2022-07-09T10:44:09;5.55;;;2.30;;
52668;SDS011;59898;52.786;6.892;2022-07-09T10:47:36;11.65;;;7.32;;
52668;SDS011;59898;52.786;6.892;2022-07-09T10:50:58;5.68;;;2.47;;
52668;SDS011;59898;52.786;6.892;2022-07-09T10:54:19;5.45;;;2.28;;
52668;SDS011;59898;52.786;6.892;2022-07-09T10:57:39;9.93;;;2.88;;
52668;SDS011;59898;52.786;6.892;2022-07-09T11:01:06;6.80;;;2.15;;
52668;SDS011;59898;52.786;6.892;2022-07-09T11:04:29;3.47;;;2.00;;
52668;SDS011;59898;52.786;6.892;2022-07-09T11:07:58;5.50;;;2.73;;
52668;SDS011;59898;52.786;6.892;2022-07-09T11:11:24;6.82;;;2.60;;
52668;SDS011;59898;52.786;6.892;2022-07-09T11:14:45;4.22;;;2.33;;
52668;SDS011;59898;52.786;6.892;2022-07-09T11:18:07;5.72;;;2.45;;
52668;SDS011;59898;52.786;6.892;2022-07-09T11:21:29;3.53;;;2.08;;
52668;SDS011;59898;52.786;6.892;2022-07-09T11:24:52;3.35;;;2.40;;
52668;SDS011;59898;52.786;6.892;2022-07-09T11:28:46;6.05;;;2.40;;
52668;SDS011;59898;52.786;6.892;2022-07-09T11:32:00;6.40;;;2.42;;
52668;SDS011;59898;52.786;6.892;2022-07-09T11:35:25;3.10;;;2.13;;
52668;SDS011;59898;52.786;6.892;2022-07-09T11:38:53;5.03;;;2.70;;
52668;SDS011;59898;52.786;6.892;2022-07-09T11:42:16;4.05;;;2.15;;
52668;SDS011;59898;52.786;6.892;2022-07-09T11:45:37;6.30;;;2.30;;
52668;SDS011;59898;52.786;6.892;2022-07-09T11:48:59;4.37;;;2.50;;
52668;SDS011;59898;52.786;6.892;2022-07-09T11:52:20;4.28;;;2.30;;
52668;SDS011;59898;52.786;6.892;2022-07-09T11:55:42;7.65;;;2.88;;
52668;SDS011;59898;52.786;6.892;2022-07-09T11:59:02;7.60;;;2.80;;
52668;SDS011;59898;52.786;6.892;2022-07-09T12:02:34;6.80;;;2.83;;
52668;SDS011;59898;52.786;6.892;2022-07-09T12:05:59;5.78;;;2.97;;
52668;SDS011;59898;52.786;6.892;2022-07-09T12:09:30;5.68;;;3.08;;
52668;SDS011;59898;52.786;6.892;2022-07-09T12:12:52;3.97;;;2.47;;
52668;SDS011;59898;52.786;6.892;2022-07-09T12:16:12;7.03;;;3.33;;
52668;SDS011;59898;52.786;6.892;2022-07-09T12:19:33;12.13;;;3.63;;
52668;SDS011;59898;52.786;6.892;2022-07-09T12:22:54;5.90;;;3.08;;
52668;SDS011;59898;52.786;6.892;2022-07-09T12:26:14;8.15;;;2.80;;
52668;SDS011;59898;52.786;6.892;2022-07-09T12:29:35;7.43;;;2.92;;
52668;SDS011;59898;52.786;6.892;2022-07-09T12:32:56;9.07;;;4.47;;
52668;SDS011;59898;52.786;6.892;2022-07-09T12:36:20;7.00;;;2.90;;
52668;SDS011;59898;52.786;6.892;2022-07-09T12:39:41;4.70;;;2.42;;
52668;SDS011;59898;52.786;6.892;2022-07-09T12:43:02;5.38;;;2.92;;
52668;SDS011;59898;52.786;6.892;2022-07-09T12:46:22;6.75;;;2.45;;
52668;SDS011;59898;52.786;6.892;2022-07-09T12:49:43;4.85;;;2.25;;
52668;SDS011;59898;52.786;6.892;2022-07-09T12:53:04;5.75;;;3.15;;
52668;SDS011;59898;52.786;6.892;2022-07-09T12:56:24;7.32;;;3.92;;
52668;SDS011;59898;52.786;6.892;2022-07-09T12:59:45;4.18;;;2.30;;
52668;SDS011;59898;52.786;6.892;2022-07-09T13:03:06;5.40;;;2.50;;
52668;SDS011;59898;52.786;6.892;2022-07-09T13:06:27;6.45;;;2.40;;
52668;SDS011;59898;52.786;6.892;2022-07-09T13:09:54;5.80;;;2.53;;
52668;SDS011;59898;52.786;6.892;2022-07-09T13:13:14;8.43;;;2.75;;
52668;SDS011;59898;52.786;6.892;2022-07-09T13:16:36;3.72;;;2.17;;
52668;SDS011;59898;52.786;6.892;2022-07-09T13:19:57;3.10;;;2.33;;
52668;SDS011;59898;52.786;6.892;2022-07-09T13:23:18;8.10;;;2.40;;
52668;SDS011;59898;52.786;6.892;2022-07-09T13:26:40;5.68;;;2.72;;
52668;SDS011;59898;52.786;6.892;2022-07-09T13:33:22;5.82;;;2.70;;
52668;SDS011;59898;52.786;6.892;2022-07-09T13:36:43;9.63;;;3.08;;
52668;SDS011;59898;52.786;6.892;2022-07-09T13:40:04;4.88;;;3.53;;
52668;SDS011;59898;52.786;6.892;2022-07-09T13:43:25;8.50;;;3.00;;
52668;SDS011;59898;52.786;6.892;2022-07-09T13:46:46;8.10;;;4.43;;
52668;SDS011;59898;52.786;6.892;2022-07-09T13:50:07;7.47;;;2.75;;
52668;SDS011;59898;52.786;6.892;2022-07-09T13:53:28;5.95;;;2.58;;
52668;SDS011;59898;52.786;6.892;2022-07-09T13:56:49;3.22;;;2.10;;
52668;SDS011;59898;52.786;6.892;2022-07-09T14:00:10;5.97;;;2.67;;
52668;SDS011;59898;52.786;6.892;2022-07-09T14:03:31;3.65;;;2.10;;
52668;SDS011;59898;52.786;6.892;2022-07-09T14:06:52;5.45;;;2.42;;
52668;SDS011;59898;52.786;6.892;2022-07-09T14:10:13;4.20;;;2.67;;
52668;SDS011;59898;52.786;6.892;2022-07-09T14:13:34;9.20;;;2.30;;
52668;SDS011;59898;52.786;6.892;2022-07-09T14:16:56;7.05;;;2.67;;
52668;SDS011;59898;52.786;6.892;2022-07-09T14:20:17;6.70;;;2.00;;
52668;SDS011;59898;52.786;6.892;2022-07-09T14:23:39;7.35;;;2.90;;
52668;SDS011;59898;52.786;6.892;2022-07-09T14:27:00;8.13;;;2.58;;
52668;SDS011;59898;52.786;6.892;2022-07-09T14:30:21;6.55;;;2.67;;
52668;SDS011;59898;52.786;6.892;2022-07-09T14:33:41;6.80;;;2.47;;
52668;SDS011;59898;52.786;6.892;2022-07-09T14:37:02;7.28;;;2.97;;
52668;SDS011;59898;52.786;6.892;2022-07-09T14:40:23;10.70;;;3.85;;
52668;SDS011;59898;52.786;6.892;2022-07-09T14:43:44;8.23;;;2.95;;
52668;SDS011;59898;52.786;6.892;2022-07-09T14:47:05;4.70;;;2.42;;
52668;SDS011;59898;52.786;6.892;2022-07-09T14:50:25;7.22;;;2.63;;
52668;SDS011;59898;52.786;6.892;2022-07-09T14:53:46;3.70;;;2.47;;
52668;SDS011;59898;52.786;6.892;2022-07-09T14:57:07;9.25;;;3.10;;
52668;SDS011;59898;52.786;6.892;2022-07-09T15:00:28;5.53;;;2.17;;
52668;SDS011;59898;52.786;6.892;2022-07-09T15:03:49;5.20;;;2.97;;
52668;SDS011;59898;52.786;6.892;2022-07-09T15:07:10;6.88;;;2.63;;
52668;SDS011;59898;52.786;6.892;2022-07-09T15:10:31;4.90;;;2.35;;
52668;SDS011;59898;52.786;6.892;2022-07-09T15:13:51;6.10;;;3.20;;
52668;SDS011;59898;52.786;6.892;2022-07-09T15:17:12;7.80;;;2.80;;
52668;SDS011;59898;52.786;6.892;2022-07-09T15:20:33;6.47;;;2.30;;
52668;SDS011;59898;52.786;6.892;2022-07-09T15:23:54;8.55;;;2.55;;
52668;SDS011;59898;52.786;6.892;2022-07-09T15:27:14;5.97;;;2.55;;
52668;SDS011;59898;52.786;6.892;2022-07-09T15:30:35;6.25;;;2.95;;
52668;SDS011;59898;52.786;6.892;2022-07-09T15:33:56;5.57;;;2.30;;
52668;SDS011;59898;52.786;6.892;2022-07-09T15:37:17;7.35;;;2.63;;
52668;SDS011;59898;52.786;6.892;2022-07-09T15:40:37;4.45;;;2.58;;
52668;SDS011;59898;52.786;6.892;2022-07-09T15:43:58;4.82;;;2.38;;
52668;SDS011;59898;52.786;6.892;2022-07-09T15:47:21;7.95;;;2.55;;
52668;SDS011;59898;52.786;6.892;2022-07-09T15:50:42;6.05;;;2.75;;
52668;SDS011;59898;52.786;6.892;2022-07-09T15:54:02;8.50;;;3.60;;
52668;SDS011;59898;52.786;6.892;2022-07-09T15:57:23;7.07;;;3.20;;
52668;SDS011;59898;52.786;6.892;2022-07-09T16:00:44;8.88;;;3.65;;
52668;SDS011;59898;52.786;6.892;2022-07-09T16:04:05;11.70;;;4.18;;
52668;SDS011;59898;52.786;6.892;2022-07-09T16:07:25;8.20;;;3.97;;
52668;SDS011;59898;52.786;6.892;2022-07-09T16:10:46;5.72;;;2.55;;
52668;SDS011;59898;52.786;6.892;2022-07-09T16:14:07;5.30;;;2.47;;
52668;SDS011;59898;52.786;6.892;2022-07-09T16:17:27;4.78;;;2.72;;
52668;SDS011;59898;52.786;6.892;2022-07-09T16:20:48;7.57;;;2.65;;
52668;SDS011;59898;52.786;6.892;2022-07-09T16:24:09;8.38;;;2.97;;
52668;SDS011;59898;52.786;6.892;2022-07-09T16:27:29;5.05;;;2.38;;
52668;SDS011;59898;52.786;6.892;2022-07-09T16:30:50;2.25;;;1.75;;
52668;SDS011;59898;52.786;6.892;2022-07-09T16:34:11;10.20;;;6.75;;
52668;SDS011;59898;52.786;6.892;2022-07-09T16:37:32;4.50;;;3.00;;
52668;SDS011;59898;52.786;6.892;2022-07-09T16:40:52;6.95;;;3.33;;
52668;SDS011;59898;52.786;6.892;2022-07-09T16:44:13;4.13;;;2.20;;
52668;SDS011;59898;52.786;6.892;2022-07-09T16:47:34;9.00;;;2.88;;
52668;SDS011;59898;52.786;6.892;2022-07-09T16:50:54;5.85;;;2.60;;
52668;SDS011;59898;52.786;6.892;2022-07-09T16:54:15;6.22;;;2.40;;
52668;SDS011;59898;52.786;6.892;2022-07-09T16:57:36;6.63;;;2.60;;
52668;SDS011;59898;52.786;6.892;2022-07-09T17:00:57;8.10;;;3.35;;
52668;SDS011;59898;52.786;6.892;2022-07-09T17:04:18;8.02;;;2.67;;
52668;SDS011;59898;52.786;6.892;2022-07-09T17:07:40;4.93;;;2.88;;
52668;SDS011;59898;52.786;6.892;2022-07-09T17:11:01;8.40;;;2.42;;
52668;SDS011;59898;52.786;6.892;2022-07-09T17:14:22;12.65;;;3.22;;
52668;SDS011;59898;52.786;6.892;2022-07-09T17:17:43;4.53;;;2.40;;
52668;SDS011;59898;52.786;6.892;2022-07-09T17:21:03;9.13;;;2.50;;
52668;SDS011;59898;52.786;6.892;2022-07-09T17:24:24;7.15;;;2.28;;
52668;SDS011;59898;52.786;6.892;2022-07-09T17:27:45;7.60;;;2.88;;
52668;SDS011;59898;52.786;6.892;2022-07-09T17:31:06;4.38;;;2.33;;
52668;SDS011;59898;52.786;6.892;2022-07-09T17:34:28;7.17;;;2.60;;
52668;SDS011;59898;52.786;6.892;2022-07-09T17:37:49;9.63;;;2.25;;
52668;SDS011;59898;52.786;6.892;2022-07-09T17:44:32;5.57;;;2.22;;
52668;SDS011;59898;52.786;6.892;2022-07-09T17:47:53;6.82;;;2.33;;
52668;SDS011;59898;52.786;6.892;2022-07-09T17:51:13;3.28;;;1.85;;
52668;SDS011;59898;52.786;6.892;2022-07-09T17:54:34;8.10;;;2.10;;
52668;SDS011;59898;52.786;6.892;2022-07-09T17:57:57;9.90;;;4.82;;
52668;SDS011;59898;52.786;6.892;2022-07-09T18:01:19;5.93;;;3.05;;
52668;SDS011;59898;52.786;6.892;2022-07-09T18:04:40;2.97;;;2.20;;
52668;SDS011;59898;52.786;6.892;2022-07-09T18:08:00;4.60;;;2.50;;
52668;SDS011;59898;52.786;6.892;2022-07-09T18:11:21;6.63;;;2.72;;
52668;SDS011;59898;52.786;6.892;2022-07-09T18:14:42;5.03;;;2.90;;
52668;SDS011;59898;52.786;6.892;2022-07-09T18:18:03;5.53;;;1.92;;
52668;SDS011;59898;52.786;6.892;2022-07-09T18:21:23;6.18;;;2.63;;
52668;SDS011;59898;52.786;6.892;2022-07-09T18:24:44;7.47;;;2.00;;
52668;SDS011;59898;52.786;6.892;2022-07-09T18:28:05;6.82;;;2.72;;
52668;SDS011;59898;52.786;6.892;2022-07-09T18:31:29;5.68;;;2.15;;
52668;SDS011;59898;52.786;6.892;2022-07-09T18:34:50;5.20;;;2.28;;
52668;SDS011;59898;52.786;6.892;2022-07-09T18:38:11;4.70;;;2.50;;
52668;SDS011;59898;52.786;6.892;2022-07-09T18:41:31;7.10;;;3.05;;
52668;SDS011;59898;52.786;6.892;2022-07-09T18:44:52;8.27;;;2.47;;
52668;SDS011;59898;52.786;6.892;2022-07-09T18:48:14;7.50;;;2.88;;
52668;SDS011;59898;52.786;6.892;2022-07-09T18:51:34;6.50;;;2.40;;
52668;SDS011;59898;52.786;6.892;2022-07-09T18:54:55;16.02;;;9.70;;
52668;SDS011;59898;52.786;6.892;2022-07-09T18:58:16;8.02;;;3.45;;
52668;SDS011;59898;52.786;6.892;2022-07-09T19:01:36;5.32;;;2.28;;
52668;SDS011;59898;52.786;6.892;2022-07-09T19:04:57;7.68;;;2.03;;
52668;SDS011;59898;52.786;6.892;2022-07-09T19:08:18;9.80;;;2.35;;
52668;SDS011;59898;52.786;6.892;2022-07-09T19:11:40;6.72;;;2.28;;
52668;SDS011;59898;52.786;6.892;2022-07-09T19:15:03;6.18;;;2.80;;
52668;SDS011;59898;52.786;6.892;2022-07-09T19:18:25;5.25;;;1.98;;
52668;SDS011;59898;52.786;6.892;2022-07-09T19:21:46;7.35;;;2.50;;
52668;SDS011;59898;52.786;6.892;2022-07-09T19:25:07;8.07;;;3.08;;
52668;SDS011;59898;52.786;6.892;2022-07-09T19:28:28;7.50;;;2.88;;
52668;SDS011;59898;52.786;6.892;2022-07-09T19:31:48;4.30;;;1.80;;
52668;SDS011;59898;52.786;6.892;2022-07-09T19:35:28;5.18;;;2.25;;
52668;SDS011;59898;52.786;6.892;2022-07-09T19:38:49;4.25;;;1.70;;
52668;SDS011;59898;52.786;6.892;2022-07-09T19:42:09;7.55;;;1.90;;
52668;SDS011;59898;52.786;6.892;2022-07-09T19:45:30;7.78;;;2.05;;
52668;SDS011;59898;52.786;6.892;2022-07-09T19:48:51;7.50;;;1.90;;
52668;SDS011;59898;52.786;6.892;2022-07-09T19:52:12;4.55;;;2.00;;
52668;SDS011;59898;52.786;6.892;2022-07-09T19:55:32;6.95;;;2.05;;
52668;SDS011;59898;52.786;6.892;2022-07-09T19:58:53;5.05;;;2.05;;
52668;SDS011;59898;52.786;6.892;2022-07-09T20:02:14;6.47;;;1.80;;
52668;SDS011;59898;52.786;6.892;2022-07-09T20:05:35;7.45;;;2.17;;
52668;SDS011;59898;52.786;6.892;2022-07-09T20:08:56;7.07;;;2.10;;
52668;SDS011;59898;52.786;6.892;2022-07-09T20:12:17;7.28;;;3.35;;
52668;SDS011;59898;52.786;6.892;2022-07-09T20:15:37;5.10;;;1.95;;
52668;SDS011;59898;52.786;6.892;2022-07-09T20:18:59;3.33;;;1.85;;
52668;SDS011;59898;52.786;6.892;2022-07-09T20:22:20;4.50;;;2.97;;